首页
METAR-TAF:

METAR-TAF

机场 :

朱利叶斯·尼雷尔国际机场

达累斯萨拉姆, 坦桑尼亚

纬度: 06-52S, 经度: 039-12E, 海拔: 55米

当前天气观测

该预报发布于1小时和9分钟前的21:00 UTC
风速9节,风向北转东北
温度 27°C
湿度 89%
气压 1010 hPa
能见度10公里或以上
散云层高于1200英尺
多云层高于1400英尺

METAR: HTDA 112100Z 03009KT 9999 SCT012 BKN014 27/25 Q1010 NOSIG

时间: 01:09 (22:09 UTC)

预报

该预报发布于5小时和9分钟前的17:00 UTC
预报有效从11日的 18点(UTC)到 12日的 24点(UTC)
风速10节,风向东转东北
能见度10公里或以上
散云层高于1200英尺
成为
从 12日的 03点(UTC)到 12日的 05点(UTC)
多云层高于1900英尺
少量云层高于2000英尺, 积雨云.

TAF: HTDA 111700Z 1118/1224 06010KT 9999 SCT012 BECMG 1203/1205 BKN019 FEW020CB

超过4000个机场的气象观测和天气预报(METAR&TAF报告)。

可查询的气象台以黄色和红色小点在地图上表示。

将鼠标移到小点上方,可查看气象台名称。

然后点击查看天气观测和预报。

如需切换地图:点击带黑十字的绿色按钮放大地图;点击带横线的绿色按钮缩小地图;或者点击绿色箭头查看邻近地区的地图。


METAR-TAF: